createdAt,value
2023-04-29T00:06:22.586Z,1.70
2023-04-29T00:08:52.028Z,1.43
2023-04-29T00:11:20.052Z,1.60
2023-04-29T00:13:49.839Z,1.67
2023-04-29T00:16:18.576Z,1.80
2023-04-29T00:18:46.840Z,1.53
2023-04-29T00:21:15.288Z,2.07
2023-04-29T00:23:43.434Z,2.10
2023-04-29T00:26:12.096Z,1.77
2023-04-29T00:28:42.210Z,1.53
2023-04-29T00:31:12.164Z,1.80
2023-04-29T00:33:40.819Z,1.50
2023-04-29T00:36:09.556Z,1.73
2023-04-29T00:38:37.675Z,1.70
2023-04-29T00:41:06.438Z,2.00
2023-04-29T00:43:34.359Z,1.40
2023-04-29T00:46:02.950Z,2.10
2023-04-29T00:48:32.985Z,2.20
2023-04-29T00:51:01.460Z,1.70
2023-04-29T00:53:30.586Z,1.90
2023-04-29T00:55:58.769Z,2.00
2023-04-29T00:58:33.015Z,2.00
2023-04-29T01:01:01.904Z,2.10
2023-04-29T01:03:32.664Z,1.97
2023-04-29T01:06:19.116Z,2.30
2023-04-29T01:09:11.995Z,2.30
2023-04-29T01:11:54.379Z,2.40
2023-04-29T01:14:25.133Z,2.33
2023-04-29T01:17:00.607Z,2.57
2023-04-29T01:19:49.605Z,2.37
2023-04-29T01:22:20.382Z,2.27
2023-04-29T01:24:50.205Z,2.10
2023-04-29T01:27:31.057Z,1.90
2023-04-29T01:30:24.128Z,1.97
2023-04-29T01:33:01.674Z,2.20
2023-04-29T01:35:53.015Z,2.37
2023-04-29T01:38:35.291Z,2.33
2023-04-29T01:41:16.632Z,2.40
2023-04-29T01:43:52.409Z,2.30
2023-04-29T01:46:23.641Z,2.60
2023-04-29T01:48:55.566Z,2.60
2023-04-29T01:51:24.673Z,2.33
2023-04-29T01:53:52.883Z,3.30
2023-04-29T01:56:22.628Z,2.90
2023-04-29T01:59:03.839Z,2.23
2023-04-29T02:01:42.159Z,2.47
2023-04-29T02:04:10.755Z,2.40
2023-04-29T02:06:38.829Z,2.33
2023-04-29T02:09:07.068Z,2.70
2023-04-29T02:11:37.751Z,2.13
2023-04-29T02:14:05.818Z,1.93
2023-04-29T02:16:34.584Z,2.23
2023-04-29T02:19:05.775Z,1.80
2023-04-29T02:21:35.499Z,1.80
2023-04-29T02:24:03.898Z,2.10
2023-04-29T02:26:32.782Z,1.97
2023-04-29T02:29:03.716Z,2.00
2023-04-29T02:31:32.175Z,2.13
2023-04-29T02:34:00.468Z,2.20
2023-04-29T02:36:29.348Z,2.10
2023-04-29T02:38:57.461Z,2.77
2023-04-29T02:41:26.509Z,2.10
2023-04-29T02:43:54.652Z,2.10
2023-04-29T02:46:24.528Z,2.57
2023-04-29T02:48:53.199Z,2.00
2023-04-29T02:51:21.226Z,2.20
2023-04-29T02:53:50.715Z,2.10
2023-04-29T02:56:19.074Z,2.20
2023-04-29T02:58:47.167Z,2.17
2023-04-29T03:01:15.971Z,2.30
2023-04-29T03:03:45.449Z,2.73
2023-04-29T03:06:14.810Z,2.13
2023-04-29T03:08:43.204Z,2.20
2023-04-29T03:11:12.072Z,2.50
2023-04-29T03:13:40.661Z,2.53
2023-04-29T03:16:10.433Z,2.80
2023-04-29T03:18:38.592Z,2.53
2023-04-29T03:21:08.358Z,2.57
2023-04-29T03:23:36.447Z,2.20
2023-04-29T03:26:06.366Z,2.40
2023-04-29T03:28:34.393Z,2.47
2023-04-29T03:31:03.190Z,2.10
2023-04-29T03:33:31.285Z,2.60
2023-04-29T03:35:59.928Z,2.37
2023-04-29T03:38:47.778Z,2.67
2023-04-29T03:41:17.580Z,2.67
2023-04-29T03:43:45.677Z,2.77
2023-04-29T04:34:50.465Z,2.80
2023-04-29T04:37:18.873Z,3.20
2023-04-29T04:39:52.941Z,3.00
2023-04-29T04:42:21.541Z,2.97
2023-04-29T04:44:51.830Z,2.90
2023-04-29T04:47:33.254Z,3.20
2023-04-29T04:50:09.846Z,2.43
2023-04-29T04:52:39.048Z,2.83
2023-04-29T04:55:29.387Z,2.53
2023-04-29T04:57:58.476Z,3.37
2023-04-29T05:00:27.470Z,2.77
2023-04-29T05:02:55.804Z,2.90
2023-04-29T05:05:25.294Z,2.50
2023-04-29T05:07:53.286Z,2.50
2023-04-29T05:10:28.621Z,2.13
2023-04-29T05:13:01.336Z,1.87
2023-04-29T05:15:29.448Z,2.33
2023-04-29T05:18:00.898Z,2.53
2023-04-29T05:20:30.893Z,1.80
2023-04-29T05:23:00.810Z,1.77
2023-04-29T05:25:29.965Z,1.43
2023-04-29T05:27:58.520Z,1.73
2023-04-29T05:30:30.843Z,1.70
2023-04-29T05:32:59.371Z,1.70
2023-04-29T05:35:27.437Z,1.47
2023-04-29T05:37:57.709Z,1.40
2023-04-29T05:40:38.403Z,1.60
2023-04-29T05:43:29.999Z,1.80
2023-04-29T05:45:59.054Z,1.93
2023-04-29T05:48:28.889Z,1.93
2023-04-29T05:50:57.697Z,1.70
2023-04-29T05:53:27.389Z,1.20
2023-04-29T05:55:55.905Z,1.40
2023-04-29T05:58:23.929Z,1.37
2023-04-29T06:00:52.773Z,1.50
2023-04-29T06:03:24.226Z,1.70
2023-04-29T06:06:09.650Z,1.50
2023-04-29T06:08:43.605Z,1.63
2023-04-29T06:11:17.419Z,1.50
2023-04-29T06:13:46.052Z,1.30
2023-04-29T06:16:14.191Z,1.60
2023-04-29T06:18:42.460Z,1.50
2023-04-29T06:21:10.468Z,1.67
2023-04-29T06:23:38.524Z,1.50
2023-04-29T06:26:14.535Z,1.70
2023-04-29T06:28:42.547Z,2.00
2023-04-29T06:31:10.767Z,1.63
2023-04-29T06:33:39.352Z,1.90
2023-04-29T06:36:07.745Z,1.80
2023-04-29T06:38:55.979Z,1.60
2023-04-29T06:41:36.880Z,2.13
2023-04-29T06:44:23.659Z,2.10
2023-04-29T06:47:10.310Z,2.03
2023-04-29T06:49:49.547Z,1.90
2023-04-29T06:52:17.534Z,2.20
2023-04-29T06:54:45.755Z,1.97
2023-04-29T06:57:15.183Z,1.70
2023-04-29T06:59:43.169Z,1.90
2023-04-29T07:02:11.607Z,1.77
2023-04-29T07:04:40.945Z,1.70
2023-04-29T07:07:09.792Z,1.70
2023-04-29T07:09:37.756Z,1.43
2023-04-29T07:12:06.802Z,1.50
2023-04-29T07:14:37.393Z,1.57
2023-04-29T07:17:05.792Z,1.60
2023-04-29T07:19:34.340Z,1.67
2023-04-29T07:22:02.738Z,1.47
2023-04-29T07:24:31.156Z,1.70
2023-04-29T07:26:59.688Z,1.60
2023-04-29T07:29:27.677Z,1.60
2023-04-29T07:31:57.864Z,1.53
2023-04-29T07:34:26.029Z,1.70
2023-04-29T07:36:55.051Z,2.10
2023-04-29T07:39:22.991Z,1.97
2023-04-29T07:41:56.738Z,2.00
2023-04-29T07:44:24.725Z,1.73
2023-04-29T07:46:52.773Z,2.07
2023-04-29T07:49:22.362Z,1.90
2023-04-29T07:51:50.662Z,1.83
2023-04-29T07:54:19.460Z,2.10
2023-04-29T07:56:47.766Z,1.80
2023-04-29T07:59:15.786Z,1.80
2023-04-29T08:01:43.946Z,1.90
2023-04-29T08:04:12.744Z,1.93
2023-04-29T08:06:51.962Z,1.70
2023-04-29T08:09:19.970Z,1.97
2023-04-29T08:11:48.862Z,3.10
2023-04-29T08:14:16.801Z,2.10
2023-04-29T08:16:45.463Z,2.17
2023-04-29T08:19:13.530Z,2.20
2023-04-29T08:21:42.666Z,2.80
2023-04-29T08:24:12.043Z,2.43
2023-04-29T08:26:42.386Z,2.10
2023-04-29T08:29:11.287Z,2.00
2023-04-29T08:31:39.314Z,2.10
2023-04-29T08:34:07.282Z,1.90
2023-04-29T08:36:37.031Z,2.00
2023-04-29T08:39:05.287Z,1.90
2023-04-29T08:41:34.898Z,2.10
2023-04-29T08:44:03.378Z,2.07
2023-04-29T08:46:32.703Z,2.47
2023-04-29T08:49:05.170Z,2.37
2023-04-29T08:51:34.561Z,2.63
2023-04-29T08:54:03.754Z,2.70
2023-04-29T08:56:34.256Z,2.57
2023-04-29T08:59:07.034Z,2.67
2023-04-29T09:01:41.880Z,2.63
2023-04-29T09:04:23.062Z,2.60
2023-04-29T09:06:51.753Z,2.80
2023-04-29T09:09:21.848Z,2.37
2023-04-29T09:11:51.172Z,2.27
2023-04-29T09:14:21.878Z,2.50
2023-04-29T09:16:50.307Z,2.23
2023-04-29T09:19:32.150Z,3.00
2023-04-29T09:22:02.046Z,2.27
2023-04-29T09:24:32.029Z,2.77
2023-04-29T09:27:03.612Z,2.67
2023-04-29T09:29:33.108Z,2.60
2023-04-29T09:32:01.642Z,2.40
2023-04-29T09:34:35.684Z,2.83
2023-04-29T09:37:04.361Z,2.73
2023-04-29T09:39:40.863Z,2.80
2023-04-29T09:42:10.851Z,2.50
2023-04-29T09:44:44.633Z,2.47
2023-04-29T09:47:13.319Z,2.60
2023-04-29T09:49:45.890Z,2.87
2023-04-29T09:52:16.588Z,2.47
2023-04-29T09:54:46.347Z,2.40
2023-04-29T09:57:16.409Z,2.70
2023-04-29T09:59:44.454Z,2.70
2023-04-29T10:02:18.020Z,2.80
2023-04-29T10:04:49.641Z,3.07
2023-04-29T10:07:19.999Z,2.80
2023-04-29T10:09:49.427Z,3.40
2023-04-29T10:12:21.446Z,3.50
2023-04-29T10:15:03.498Z,3.03
2023-04-29T10:17:45.939Z,3.37
2023-04-29T10:20:18.884Z,3.47
2023-04-29T10:22:50.841Z,3.37
2023-04-29T10:25:20.571Z,3.37
2023-04-29T10:27:53.438Z,3.60
2023-04-29T10:30:23.186Z,3.40
2023-04-29T10:32:53.044Z,3.50
2023-04-29T10:35:25.651Z,2.97
2023-04-29T10:37:57.145Z,3.67
2023-04-29T10:40:36.501Z,3.60
2023-04-29T10:43:07.019Z,3.00
2023-04-29T10:45:36.329Z,3.33
2023-04-29T10:48:13.780Z,3.50
2023-04-29T10:51:03.774Z,3.83
2023-04-29T10:53:31.964Z,3.57
2023-04-29T10:56:06.987Z,3.20
2023-04-29T10:58:45.531Z,3.60
2023-04-29T11:01:17.009Z,3.43
2023-04-29T11:03:58.382Z,3.07
2023-04-29T11:06:40.902Z,2.92
2023-04-29T11:09:31.513Z,3.58
2023-04-29T11:12:03.146Z,2.97
2023-04-29T11:14:40.083Z,2.78
2023-04-29T11:17:12.130Z,3.40
2023-04-29T11:19:45.024Z,2.65
2023-04-29T11:22:28.057Z,2.70
2023-04-29T11:25:00.384Z,2.80
2023-04-29T11:27:32.133Z,2.40
2023-04-29T11:30:05.027Z,2.35
2023-04-29T11:32:35.808Z,2.50
2023-04-29T11:35:12.409Z,2.17
2023-04-29T11:37:43.189Z,2.47
2023-04-29T11:40:13.206Z,3.92
2023-04-29T11:42:44.495Z,4.97
2023-04-29T11:45:15.195Z,6.18
2023-04-29T11:47:46.340Z,6.65
2023-04-29T11:50:19.700Z,5.65
2023-04-29T11:52:49.357Z,6.20
2023-04-29T11:55:19.392Z,6.13
2023-04-29T11:57:52.286Z,6.72
2023-04-29T12:00:22.860Z,7.25
2023-04-29T12:02:50.976Z,6.57
2023-04-29T12:05:19.889Z,7.05
2023-04-29T12:07:50.391Z,7.97
2023-04-29T12:10:18.647Z,7.70
2023-04-29T12:12:47.379Z,7.77
2023-04-29T12:15:16.154Z,7.60
2023-04-29T12:17:46.507Z,7.57
2023-04-29T12:20:15.071Z,8.63
2023-04-29T12:22:45.403Z,7.30
2023-04-29T12:25:13.584Z,7.30
2023-04-29T12:27:42.933Z,7.67
2023-04-29T12:30:12.027Z,8.50
2023-04-29T12:32:40.249Z,7.50
2023-04-29T12:35:17.386Z,6.97
2023-04-29T12:37:49.265Z,7.03
2023-04-29T12:40:18.082Z,7.13
2023-04-29T12:42:46.843Z,6.73
2023-04-29T12:45:29.795Z,7.33
2023-04-29T12:47:58.596Z,6.80
2023-04-29T12:50:36.096Z,6.87
2023-04-29T12:53:06.435Z,6.70
2023-04-29T12:55:35.907Z,7.83
2023-04-29T12:58:05.251Z,7.97
2023-04-29T13:00:35.037Z,6.57
2023-04-29T13:03:04.181Z,5.87
2023-04-29T13:05:34.072Z,5.80
2023-04-29T13:08:02.345Z,6.20
2023-04-29T13:10:30.874Z,6.13
2023-04-29T13:12:59.351Z,6.13
2023-04-29T13:15:28.175Z,6.47
2023-04-29T13:17:58.663Z,6.50
2023-04-29T13:20:26.922Z,6.30
2023-04-29T13:22:56.236Z,5.63
2023-04-29T13:25:24.192Z,5.83
2023-04-29T13:27:52.629Z,5.53
2023-04-29T13:30:20.786Z,6.20
2023-04-29T13:32:55.189Z,5.87
2023-04-29T13:35:27.208Z,5.70
2023-04-29T13:37:57.237Z,6.10
2023-04-29T13:40:28.036Z,5.20
2023-04-29T13:43:05.015Z,6.17
2023-04-29T13:45:38.997Z,5.90
2023-04-29T13:48:24.521Z,5.20
2023-04-29T13:51:34.569Z,5.60
2023-04-29T14:03:53.605Z,5.30
2023-04-29T14:06:22.085Z,5.40
2023-04-29T14:08:51.449Z,5.00
2023-04-29T14:11:19.923Z,5.33
2023-04-29T14:13:47.933Z,5.60
2023-04-29T14:16:16.955Z,5.60
2023-04-29T14:18:45.421Z,5.87
2023-04-29T14:21:14.095Z,5.07
2023-04-29T14:23:42.376Z,5.40
2023-04-29T14:26:27.249Z,5.17
2023-04-29T14:28:58.565Z,5.43
2023-04-29T14:31:28.359Z,5.60
2023-04-29T14:33:56.659Z,6.10
2023-04-29T14:36:26.299Z,4.93
2023-04-29T14:38:55.525Z,5.33
2023-04-29T14:41:25.451Z,4.77
2023-04-29T14:43:53.421Z,6.20
2023-04-29T14:46:22.682Z,4.87
2023-04-29T14:48:50.838Z,5.43
2023-04-29T14:51:18.863Z,5.33
2023-04-29T14:53:46.977Z,4.97
2023-04-29T14:56:16.950Z,4.63
2023-04-29T14:58:46.329Z,4.57
2023-04-29T15:01:14.291Z,4.23
2023-04-29T15:03:44.865Z,4.00
2023-04-29T15:06:14.003Z,4.53
2023-04-29T15:08:42.172Z,4.53
2023-04-29T15:11:10.187Z,4.67
2023-04-29T15:13:39.155Z,4.40
2023-04-29T15:16:09.982Z,4.60
2023-04-29T15:18:38.704Z,4.23
2023-04-29T15:21:07.902Z,3.70
2023-04-29T15:23:36.014Z,4.10
2023-04-29T15:26:05.137Z,4.37
2023-04-29T15:28:33.093Z,4.10
2023-04-29T15:31:05.211Z,4.20
2023-04-29T15:33:35.251Z,4.30
2023-04-29T15:36:04.183Z,4.30
2023-04-29T15:38:32.721Z,4.00
2023-04-29T15:41:02.744Z,17.73
2023-04-29T15:43:31.871Z,13.50
2023-04-29T15:46:01.534Z,5.17
2023-04-29T15:48:29.987Z,4.77
2023-04-29T15:50:59.798Z,4.57
2023-04-29T15:53:27.741Z,3.97
2023-04-29T15:55:56.365Z,4.07
2023-04-29T15:58:24.746Z,4.60
2023-04-29T16:00:52.793Z,3.57
2023-04-29T16:03:21.546Z,4.40
2023-04-29T16:05:50.924Z,4.63
2023-04-29T16:08:20.322Z,3.93
2023-04-29T16:10:49.543Z,4.73
2023-04-29T16:13:17.954Z,10.10
2023-04-29T16:15:46.278Z,4.97
2023-04-29T16:18:15.065Z,4.60
2023-04-29T16:20:45.152Z,4.37
2023-04-29T16:23:14.336Z,3.73
2023-04-29T16:25:43.916Z,5.77
2023-04-29T16:28:12.334Z,3.90
2023-04-29T16:30:40.257Z,4.83
2023-04-29T16:33:08.558Z,7.03
2023-04-29T16:35:37.734Z,5.27
2023-04-29T16:38:05.841Z,7.30
2023-04-29T16:40:33.889Z,12.23
2023-04-29T16:43:03.441Z,4.77
2023-04-29T16:45:31.535Z,4.30
2023-04-29T16:47:59.633Z,4.07
2023-04-29T16:50:27.937Z,5.30
2023-04-29T16:52:55.924Z,4.30
2023-04-29T16:55:24.212Z,4.20
2023-04-29T16:57:52.319Z,5.87
2023-04-29T17:00:21.841Z,5.67
2023-04-29T17:02:51.225Z,9.93
2023-04-29T17:05:20.857Z,5.77
2023-04-29T17:07:49.772Z,4.00
2023-04-29T17:10:18.401Z,4.20
2023-04-29T17:12:46.402Z,3.90
2023-04-29T17:15:14.842Z,5.90
2023-04-29T17:17:44.763Z,3.73
2023-04-29T17:20:14.014Z,4.27
2023-04-29T17:22:43.083Z,4.37
2023-04-29T17:25:14.741Z,4.30
2023-04-29T17:27:45.037Z,3.83
2023-04-29T17:30:14.467Z,4.43
2023-04-29T17:32:44.720Z,3.93
2023-04-29T17:35:12.797Z,4.30
2023-04-29T17:37:40.848Z,4.50
2023-04-29T17:40:10.967Z,3.80
2023-04-29T17:42:39.023Z,3.40
2023-04-29T17:45:08.840Z,5.20
2023-04-29T17:47:37.544Z,7.83
2023-04-29T17:50:08.515Z,6.13
2023-04-29T17:52:36.945Z,5.30
2023-04-29T17:55:06.179Z,4.23
2023-04-29T17:57:34.642Z,3.57
2023-04-29T18:00:03.277Z,3.00
2023-04-29T18:02:33.320Z,4.57
2023-04-29T18:05:03.850Z,5.80
2023-04-29T18:07:33.742Z,5.20
2023-04-29T18:10:01.797Z,8.70
2023-04-29T18:12:29.829Z,7.50
2023-04-29T18:14:57.946Z,5.00
2023-04-29T18:17:27.197Z,4.60
2023-04-29T18:19:55.533Z,4.37
2023-04-29T18:22:23.787Z,4.50
2023-04-29T18:24:53.124Z,4.80
2023-04-29T18:27:21.848Z,3.73
2023-04-29T18:29:50.619Z,3.90
2023-04-29T18:32:18.903Z,4.37
2023-04-29T18:34:46.921Z,3.67
2023-04-29T18:37:14.881Z,3.90
2023-04-29T18:39:42.825Z,3.80
2023-04-29T18:42:12.526Z,3.90
2023-04-29T18:44:40.602Z,4.17
2023-04-29T18:47:08.650Z,5.00
2023-04-29T18:49:38.206Z,5.60
2023-04-29T18:52:06.705Z,4.57
2023-04-29T18:54:35.037Z,5.47
2023-04-29T18:57:03.837Z,5.70
2023-04-29T18:59:35.814Z,4.77
2023-04-29T19:02:04.201Z,5.93
2023-04-29T19:04:32.509Z,6.20
2023-04-29T19:07:01.897Z,5.60
2023-04-29T19:09:31.573Z,5.87
2023-04-29T19:12:03.298Z,5.33
2023-04-29T19:14:33.971Z,3.43
2023-04-29T19:17:02.096Z,3.90
2023-04-29T19:19:31.677Z,4.20
2023-04-29T19:21:59.873Z,3.50
2023-04-29T19:24:28.429Z,4.40
2023-04-29T19:26:56.494Z,4.40
2023-04-29T19:29:25.044Z,5.20
2023-04-29T19:31:54.442Z,5.10
2023-04-29T19:34:22.538Z,4.80
2023-04-29T19:36:50.678Z,4.63
2023-04-29T19:39:19.495Z,5.67
2023-04-29T19:41:47.524Z,5.47
2023-04-29T19:44:15.721Z,4.60
2023-04-29T19:46:44.258Z,5.00
2023-04-29T19:49:13.972Z,4.80
2023-04-29T19:51:42.436Z,4.93
2023-04-29T19:54:10.480Z,5.10
2023-04-29T19:56:39.235Z,4.80
2023-04-29T19:59:07.309Z,4.80
2023-04-29T20:01:36.068Z,5.20
2023-04-29T20:04:04.152Z,4.27
2023-04-29T20:06:34.986Z,4.83
2023-04-29T20:09:03.768Z,4.63
2023-04-29T20:11:31.831Z,4.40
2023-04-29T20:13:59.827Z,5.53
2023-04-29T20:16:29.928Z,5.17
2023-04-29T20:18:58.443Z,4.63
2023-04-29T20:21:27.554Z,4.93
2023-04-29T20:23:57.060Z,7.07
2023-04-29T20:26:25.071Z,5.93
2023-04-29T20:28:53.668Z,6.83
2023-04-29T20:31:21.688Z,7.30
2023-04-29T20:33:49.702Z,5.43
2023-04-29T20:36:18.614Z,6.63
2023-04-29T20:38:48.593Z,6.20
2023-04-29T20:41:22.370Z,5.85
2023-04-29T20:43:50.413Z,5.37
2023-04-29T20:46:19.190Z,5.63
2023-04-29T20:48:47.227Z,7.20
2023-04-29T20:51:15.452Z,5.10
2023-04-29T20:53:43.462Z,4.50
2023-04-29T20:56:11.456Z,5.30
2023-04-29T20:58:40.866Z,4.50
2023-04-29T21:01:09.162Z,4.40
2023-04-29T21:03:37.555Z,5.00
2023-04-29T21:06:05.991Z,4.67
2023-04-29T21:23:02.396Z,4.73
